Time,TemperatureF,DewpointF,PressureIn,WindDirection,WindDirectionDegrees,WindSpeedMPH,WindSpeedGustMPH,Humidity,HourlyPrecipIn,Conditions,Clouds,dailyrainin,SoftwareType,DateUTC
2009-11-20 06:00:00,45.5,36.6,28.29,NNE,22,2.3,0.0,71,0.00,CLR,FEW,0.00,WeatherDisplay:10.37,2009-11-20 14:00:00,
2009-11-20 06:45:00,45.1,41.5,28.29,NNE,22,0.0,2.0,87,0.00,CLR,FEW,0.00,WeatherDisplay:10.37,2009-11-20 14:45:00,
2009-11-20 06:50:00,45.1,43.8,28.29,NE,47,0.0,3.0,95,0.00,CLR,FEW,0.00,WeatherDisplay:10.37,2009-11-20 14:50:00,
2009-11-20 07:00:00,44.8,43.4,28.29,NNW,339,0.0,3.0,95,0.00,CLR,FEW,0.00,WeatherDisplay:10.37,2009-11-20 15:00:00,
2009-11-20 07:05:00,44.6,43.3,28.29,NW,318,0.0,4.0,95,0.00,CLR,FEW,0.00,WeatherDisplay:10.37,2009-11-20 15:05:00,
2009-11-20 07:15:00,44.6,43.2,28.29,NNE,30,0.0,3.0,95,0.00,CLR,FEW,0.00,WeatherDisplay:10.37,2009-11-20 15:15:00,
2009-11-20 07:20:00,44.4,43.1,28.29,North,354,0.0,3.0,95,0.00,CLR,FEW,0.00,WeatherDisplay:10.37,2009-11-20 15:20:00,
2009-11-20 07:30:00,44.6,43.3,28.29,NNW,338,0.0,3.0,95,0.00,CLR,FEW,0.00,WeatherDisplay:10.37,2009-11-20 15:30:00,
2009-11-20 07:40:00,45.3,44.0,28.29,NE,40,1.0,4.0,95,0.00,CLR,FEW,0.00,WeatherDisplay:10.37,2009-11-20 15:40:00,
2009-11-20 07:50:00,45.9,44.2,28.29,NNE,33,1.0,3.0,94,0.00,CLR,FEW,0.00,WeatherDisplay:10.37,2009-11-20 15:50:00,
2009-11-20 08:00:00,46.2,44.3,28.29,ENE,67,1.0,4.0,93,0.00,CLR,FEW,0.00,WeatherDisplay:10.37,2009-11-20 16:00:00,
2009-11-20 08:05:00,46.3,43.9,28.29,East,82,0.0,4.0,91,0.00,CLR,FEW,0.00,WeatherDisplay:10.37,2009-11-20 16:05:00,
2009-11-20 08:10:00,46.4,43.9,28.29,ENE,69,0.0,4.0,91,0.00,CLR,FEW,0.00,WeatherDisplay:10.37,2009-11-20 16:10:00,
2009-11-20 08:20:00,46.8,43.7,28.29,NNE,24,0.0,5.0,89,0.00,CLR,FEW,0.00,WeatherDisplay:10.37,2009-11-20 16:20:00,
2009-11-20 08:30:00,47.3,43.6,28.29,NE,53,0.0,5.0,87,0.00,CLR,FEW,0.00,WeatherDisplay:10.37,2009-11-20 16:30:00,
2009-11-20 08:40:00,48.0,44.0,28.29,ENE,63,2.0,4.0,86,0.00,CLR,FEW,0.00,WeatherDisplay:10.37,2009-11-20 16:40:00,
2009-11-20 08:50:00,48.4,43.5,28.29,ENE,71,2.0,4.0,83,0.00,CLR,FEW,0.00,WeatherDisplay:10.37,2009-11-20 16:50:00,
2009-11-20 09:00:00,48.7,43.5,28.29,NE,53,1.0,4.0,82,0.00,CLR,FEW,0.00,WeatherDisplay:10.37,2009-11-20 17:00:00,
2009-11-20 09:05:00,48.9,43.7,28.29,ENE,63,0.0,4.0,82,0.00,CLR,FEW,0.00,WeatherDisplay:10.37,2009-11-20 17:05:00,
2009-11-20 09:10:00,49.1,43.5,28.29,ENE,69,2.0,5.0,81,0.00,CLR,FEW,0.00,WeatherDisplay:10.37,2009-11-20 17:10:00,
2009-11-20 09:20:00,49.5,43.5,28.29,NE,53,2.0,5.0,80,0.00,CLR,FEW,0.00,WeatherDisplay:10.37,2009-11-20 17:20:00,
2009-11-20 09:30:00,49.8,43.6,28.29,NE,42,0.0,5.0,79,0.00,CLR,FEW,0.00,WeatherDisplay:10.37,2009-11-20 17:30:00,
2009-11-20 09:40:00,50.2,43.6,28.32,ENE,66,3.0,6.0,78,0.00,CLR,FEW,0.00,WeatherDisplay:10.37,2009-11-20 17:40:00,
2009-11-20 09:50:00,50.4,43.8,28.32,NNE,32,0.0,4.0,78,0.00,CLR,FEW,0.00,WeatherDisplay:10.37,2009-11-20 17:50:00,
2009-11-20 10:00:00,50.0,44.4,28.32,NNE,27,2.0,5.0,81,0.00,CLR,FEW,0.00,WeatherDisplay:10.37,2009-11-20 18:00:00,
2009-11-20 10:05:00,49.5,44.8,28.32,North,4,3.0,6.0,84,0.00,CLR,FEW,0.00,WeatherDisplay:10.37,2009-11-20 18:05:00,
2009-11-20 10:10:00,49.1,45.1,28.32,ENE,60,3.0,6.0,86,0.00,CLR,FEW,0.00,WeatherDisplay:10.37,2009-11-20 18:10:00,
2009-11-20 10:20:00,48.5,46.0,28.32,NE,49,3.0,5.0,91,0.00,CLR,FEW,0.00,WeatherDisplay:10.37,2009-11-20 18:20:00,
2009-11-20 10:30:00,48.0,46.4,28.32,NE,40,1.0,6.0,94,0.00,CLR,FEW,0.00,WeatherDisplay:10.37,2009-11-20 18:30:00,
2009-11-20 10:40:00,47.7,46.6,28.29,NNE,27,1.0,4.0,96,0.00,CLR,FEW,0.00,WeatherDisplay:10.37,2009-11-20 18:40:00,
2009-11-20 10:50:00,47.7,46.9,28.32,NE,45,2.0,9.0,97,0.00,CLR,FEW,0.00,WeatherDisplay:10.37,2009-11-20 18:50:00,
2009-11-20 11:00:00,47.5,46.9,28.32,NE,40,1.0,6.0,98,0.00,CLR,FEW,0.00,WeatherDisplay:10.37,2009-11-20 19:00:00,
2009-11-20 11:05:00,47.5,46.9,28.32,NE,34,1.0,4.0,98,0.00,CLR,FEW,0.00,WeatherDisplay:10.37,2009-11-20 19:05:00,
2009-11-20 11:10:00,47.5,46.9,28.32,ENE,67,3.0,6.0,98,0.00,CLR,FEW,0.00,WeatherDisplay:10.37,2009-11-20 19:10:00,
2009-11-20 11:20:00,47.5,46.9,28.29,East,79,2.0,5.0,98,0.00,CLR,FEW,0.00,WeatherDisplay:10.37,2009-11-20 19:20:00,
2009-11-20 11:30:00,47.7,47.1,28.29,ESE,105,3.0,9.0,98,0.00,CLR,FEW,0.00,WeatherDisplay:10.37,2009-11-20 19:30:00,
2009-11-20 11:45:00,47.8,47.3,28.32,NE,56,3.0,6.0,98,0.00,CLR,FEW,0.00,WeatherDisplay:10.37,2009-11-20 19:45:00,
2009-11-20 11:50:00,48.0,47.5,28.32,ENE,66,1.0,6.0,98,0.00,CLR,FEW,0.00,WeatherDisplay:10.37,2009-11-20 19:50:00,
2009-11-20 12:00:00,48.2,47.7,28.32,East,80,2.0,6.0,98,0.00,CLR,FEW,0.00,WeatherDisplay:10.37,2009-11-20 20:00:00,
2009-11-20 12:05:00,48.2,47.7,28.32,ESE,112,4.9,4.9,98,0.00,CLR,FEW,0.00,WeatherDisplay:10.37,2009-11-20 20:05:00,
2009-11-20 12:15:00,48.0,47.5,28.32,NNE,18,3.0,6.0,98,0.04,RA,FEW,0.04,WeatherDisplay:10.37,2009-11-20 20:15:00,
2009-11-20 12:20:00,48.1,47.6,28.32,North,6,3.0,6.0,98,0.00,RA,FEW,0.04,WeatherDisplay:10.37,2009-11-20 20:20:00,
2009-11-20 12:30:00,48.0,47.5,28.32,NNE,14,2.0,8.0,98,0.00,RA,FEW,0.08,WeatherDisplay:10.37,2009-11-20 20:30:00,
2009-11-20 12:45:00,48.0,47.5,28.32,NNE,24,1.0,4.0,98,0.00,RA,FEW,0.12,WeatherDisplay:10.37,2009-11-20 20:45:00,
2009-11-20 12:50:00,47.7,47.1,28.35,NNE,18,1.0,5.0,98,0.04,RA,FEW,0.16,WeatherDisplay:10.37,2009-11-20 20:50:00,
2009-11-20 13:00:00,47.1,46.6,28.35,NE,39,1.0,3.0,98,0.00,,FEW,0.16,WeatherDisplay:10.37,2009-11-20 21:00:00,
2009-11-20 13:05:00,46.9,46.4,28.35,NNE,23,0.0,3.0,98,0.00,,FEW,0.16,WeatherDisplay:10.37,2009-11-20 21:05:00,
2009-11-20 13:10:00,46.8,46.2,28.35,NNE,22,0.0,4.0,98,0.00,,FEW,0.16,WeatherDisplay:10.37,2009-11-20 21:10:00,
2009-11-20 13:20:00,46.8,46.2,28.35,NNE,22,0.0,3.0,98,0.00,,FEW,0.16,WeatherDisplay:10.37,2009-11-20 21:20:00,
2009-11-20 13:30:00,46.5,45.9,28.35,NE,42,0.0,3.0,98,0.00,RA,FEW,0.20,WeatherDisplay:10.37,2009-11-20 21:30:00,
2009-11-20 13:40:00,46.4,45.9,28.35,ENE,68,2.0,3.0,98,0.00,,FEW,0.20,WeatherDisplay:10.37,2009-11-20 21:40:00,
2009-11-20 13:50:00,46.8,46.2,28.32,NNE,29,1.0,4.0,98,0.00,,FEW,0.20,WeatherDisplay:10.37,2009-11-20 21:50:00,
2009-11-20 14:00:00,47.1,46.6,28.32,NE,37,1.0,4.0,98,0.00,,FEW,0.20,WeatherDisplay:10.37,2009-11-20 22:00:00,
2009-11-20 14:05:00,47.3,46.8,28.32,NNE,22,3.6,3.6,98,0.04,CLR,FEW,0.20,WeatherDisplay:10.37,2009-11-20 22:05:00,
2009-11-20 14:15:00,47.7,47.1,28.32,North,357,3.0,6.0,98,0.00,,FEW,0.20,WeatherDisplay:10.37,2009-11-20 22:15:00,
2009-11-20 14:20:00,47.8,47.3,28.32,North,8,3.0,8.0,98,0.00,,FEW,0.20,WeatherDisplay:10.37,2009-11-20 22:20:00,
2009-11-20 14:30:00,47.8,47.3,28.32,ENE,63,3.0,6.0,98,0.00,CLR,FEW,0.20,WeatherDisplay:10.37,2009-11-20 22:30:00,
2009-11-20 14:40:00,47.8,47.3,28.35,North,10,0.0,5.0,98,0.00,CLR,FEW,0.20,WeatherDisplay:10.37,2009-11-20 22:40:00,
2009-11-20 14:50:00,48.0,47.5,28.35,NNE,27,2.0,6.0,98,0.00,CLR,FEW,0.20,WeatherDisplay:10.37,2009-11-20 22:50:00,
2009-11-20 15:00:00,48.2,47.7,28.35,ENE,64,2.0,6.0,98,0.00,CLR,FEW,0.20,WeatherDisplay:10.37,2009-11-20 23:00:00,
2009-11-20 15:05:00,48.0,47.5,28.35,NE,44,1.0,6.0,98,0.00,CLR,FEW,0.20,WeatherDisplay:10.37,2009-11-20 23:05:00,
2009-11-20 15:10:00,47.9,47.3,28.35,NNE,32,0.0,6.0,98,0.00,CLR,FEW,0.20,WeatherDisplay:10.37,2009-11-20 23:10:00,
2009-11-20 15:20:00,47.7,47.1,28.35,NE,56,2.0,6.0,98,0.00,CLR,FEW,0.20,WeatherDisplay:10.37,2009-11-20 23:20:00,
2009-11-20 15:30:00,47.5,46.9,28.35,NNE,32,0.0,3.0,98,0.00,CLR,FEW,0.20,WeatherDisplay:10.37,2009-11-20 23:30:00,
2009-11-20 15:40:00,47.5,46.9,28.35,North,354,1.0,4.0,98,0.00,CLR,FEW,0.20,WeatherDisplay:10.37,2009-11-20 23:40:00,
2009-11-20 15:50:00,47.7,47.1,28.38,NNE,20,0.0,4.0,98,0.00,CLR,FEW,0.20,WeatherDisplay:10.37,2009-11-20 23:50:00,
2009-11-20 16:00:00,47.1,46.6,28.38,NNW,331,2.0,6.0,98,0.00,CLR,FEW,0.20,WeatherDisplay:10.37,2009-11-21 00:00:00,
2009-11-20 16:05:00,47.3,46.8,28.38,WNW,292,3.4,3.4,98,0.00,CLR,FEW,0.20,WeatherDisplay:10.37,2009-11-21 00:05:00,
2009-11-20 16:10:00,47.1,46.6,28.38,NW,321,0.0,2.0,98,0.00,CLR,FEW,0.20,WeatherDisplay:10.37,2009-11-21 00:10:00,
2009-11-20 16:20:00,46.9,46.4,28.38,NNE,22,0.0,0.0,98,0.00,CLR,FEW,0.20,WeatherDisplay:10.37,2009-11-21 00:20:00,
2009-11-20 16:35:00,46.6,46.0,28.38,NNE,22,0.0,0.0,98,0.00,CLR,FEW,0.20,WeatherDisplay:10.37,2009-11-21 00:35:00,
2009-11-20 16:40:00,46.4,45.9,28.38,NNE,22,0.0,0.0,98,0.00,CLR,FEW,0.20,WeatherDisplay:10.37,2009-11-21 00:40:00,
2009-11-20 16:50:00,46.1,45.5,28.38,NNE,15,0.0,3.0,98,0.00,CLR,FEW,0.20,WeatherDisplay:10.37,2009-11-21 00:50:00,
2009-11-20 17:00:00,45.6,45.1,28.38,NNW,338,0.0,0.0,98,0.00,CLR,FEW,0.20,WeatherDisplay:10.37,2009-11-21 01:00:00,
2009-11-20 17:05:00,45.5,45.0,28.41,NNW,338,0.0,0.0,98,0.00,CLR,FEW,0.20,WeatherDisplay:10.37,2009-11-21 01:05:00,
2009-11-20 17:15:00,45.3,44.8,28.41,NNW,338,0.0,0.0,98,0.00,CLR,FEW,0.20,WeatherDisplay:10.37,2009-11-21 01:15:00,
2009-11-20 17:20:00,45.1,44.6,28.41,NNW,338,0.0,0.0,98,0.00,CLR,FEW,0.20,WeatherDisplay:10.37,2009-11-21 01:20:00,
2009-11-20 17:30:00,45.1,44.6,28.41,NNW,338,0.0,0.0,98,0.00,CLR,FEW,0.20,WeatherDisplay:10.37,2009-11-21 01:30:00,
2009-11-20 17:40:00,45.0,44.4,28.41,NNW,338,0.0,0.0,98,0.00,CLR,FEW,0.20,WeatherDisplay:10.37,2009-11-21 01:40:00,
2009-11-20 17:50:00,44.8,44.3,28.41,NNW,338,0.0,0.0,98,0.00,CLR,FEW,0.20,WeatherDisplay:10.37,2009-11-21 01:50:00,
2009-11-20 18:00:00,44.8,44.3,28.41,North,353,1.0,4.0,98,0.00,CLR,FEW,0.20,WeatherDisplay:10.37,2009-11-21 02:00:00,
2009-11-20 18:05:00,44.8,44.3,28.41,North,2,0.0,3.0,98,0.00,CLR,FEW,0.20,WeatherDisplay:10.37,2009-11-21 02:05:00,
2009-11-20 18:10:00,44.8,44.3,28.41,North,2,0.0,0.0,98,0.00,CLR,FEW,0.20,WeatherDisplay:10.37,2009-11-21 02:10:00,
2009-11-20 18:20:00,45.0,44.4,28.44,North,3,0.0,4.0,98,0.00,CLR,FEW,0.20,WeatherDisplay:10.37,2009-11-21 02:20:00,
2009-11-20 18:30:00,45.1,44.6,28.44,East,88,0.0,3.0,98,0.00,CLR,FEW,0.20,WeatherDisplay:10.37,2009-11-21 02:30:00,
2009-11-20 18:40:00,44.8,44.3,28.44,East,90,0.0,5.0,98,0.00,CLR,FEW,0.20,WeatherDisplay:10.37,2009-11-21 02:40:00,
2009-11-20 18:50:00,44.8,44.3,28.44,East,90,0.0,0.0,98,0.00,CLR,FEW,0.20,WeatherDisplay:10.37,2009-11-21 02:50:00,
2009-11-20 19:00:00,44.6,44.1,28.44,NE,53,0.0,4.0,98,0.00,CLR,FEW,0.20,WeatherDisplay:10.37,2009-11-21 03:00:00,
2009-11-20 19:05:00,44.6,44.1,28.44,North,8,0.0,3.0,98,0.00,CLR,FEW,0.20,WeatherDisplay:10.37,2009-11-21 03:05:00,
2009-11-20 19:10:00,44.6,44.1,28.44,North,4,0.0,0.0,98,0.00,CLR,FEW,0.20,WeatherDisplay:10.37,2009-11-21 03:10:00,
2009-11-20 19:20:00,44.2,43.7,28.44,North,0,0.0,0.0,98,0.00,CLR,FEW,0.20,WeatherDisplay:10.37,2009-11-21 03:20:00,
2009-11-20 19:30:00,44.1,43.5,28.44,NNE,19,0.0,0.0,98,0.00,CLR,FEW,0.20,WeatherDisplay:10.37,2009-11-21 03:30:00,
2009-11-20 19:45:00,44.2,43.7,28.47,NNE,22,0.0,0.0,98,0.00,CLR,FEW,0.20,WeatherDisplay:10.37,2009-11-21 03:45:00,
2009-11-20 19:50:00,44.4,43.9,28.47,NNE,22,0.0,0.0,98,0.00,CLR,FEW,0.20,WeatherDisplay:10.37,2009-11-21 03:50:00,
2009-11-20 20:00:00,44.6,44.1,28.47,NNE,22,0.0,0.0,98,0.00,CLR,FEW,0.20,WeatherDisplay:10.37,2009-11-21 04:00:00,
2009-11-20 20:05:00,44.6,44.1,28.47,NNE,22,0.0,0.0,98,0.00,CLR,FEW,0.20,WeatherDisplay:10.37,2009-11-21 04:05:00,
2009-11-20 20:10:00,44.8,44.3,28.47,NNE,22,0.0,0.0,98,0.00,CLR,FEW,0.20,WeatherDisplay:10.37,2009-11-21 04:10:00,
2009-11-20 20:20:00,44.6,44.1,28.50,NNE,22,0.0,0.0,98,0.00,CLR,FEW,0.20,WeatherDisplay:10.37,2009-11-21 04:20:00,
2009-11-20 20:30:00,44.2,43.7,28.50,NNE,22,0.0,0.0,98,0.00,CLR,FEW,0.20,WeatherDisplay:10.37,2009-11-21 04:30:00,
2009-11-20 20:40:00,44.1,43.5,28.50,NNE,22,0.0,0.0,98,0.00,CLR,FEW,0.20,WeatherDisplay:10.37,2009-11-21 04:40:00,
2009-11-20 20:50:00,43.7,43.2,28.50,NNE,22,0.0,0.0,98,0.00,CLR,FEW,0.20,WeatherDisplay:10.37,2009-11-21 04:50:00,
2009-11-20 21:00:00,43.7,43.2,28.50,NNE,22,0.0,0.0,98,0.00,CLR,FEW,0.20,WeatherDisplay:10.37,2009-11-21 05:00:00,
2009-11-20 21:02:00,43.5,43.0,28.50,NNE,22,0.0,0.0,98,0.00,CLR,FEW,0.20,WeatherDisplay:10.37,2009-11-21 05:02:00,
2009-11-20 21:05:00,43.5,43.0,28.50,NNE,22,0.0,0.0,98,0.00,CLR,FEW,0.20,WeatherDisplay:10.37,2009-11-21 05:05:00,
2009-11-20 21:20:00,43.3,42.8,28.50,NNE,22,0.0,0.0,98,0.00,CLR,FEW,0.20,WeatherDisplay:10.37,2009-11-21 05:20:00,
2009-11-20 21:30:00,43.2,42.6,28.50,NNE,22,0.0,0.0,98,0.00,CLR,FEW,0.20,WeatherDisplay:10.37,2009-11-21 05:30:00,
2009-11-20 21:40:00,43.0,42.5,28.53,NNE,22,0.0,0.0,98,0.00,CLR,FEW,0.20,WeatherDisplay:10.37,2009-11-21 05:40:00,
2009-11-20 21:50:00,42.8,42.3,28.53,NNE,22,0.0,2.0,98,0.00,CLR,FEW,0.20,WeatherDisplay:10.37,2009-11-21 05:50:00,
2009-11-20 22:00:00,42.4,41.9,28.53,NNE,22,0.0,0.0,98,0.00,CLR,FEW,0.20,WeatherDisplay:10.37,2009-11-21 06:00:00,
2009-11-20 22:05:00,42.3,41.7,28.53,NNE,22,0.0,0.0,98,0.00,CLR,FEW,0.20,WeatherDisplay:10.37,2009-11-21 06:05:00,
2009-11-20 22:10:00,42.1,41.6,28.53,NNE,22,0.0,0.0,98,0.00,CLR,FEW,0.20,WeatherDisplay:10.37,2009-11-21 06:10:00,
2009-11-20 22:20:00,42.1,41.6,28.50,NNE,22,0.0,0.0,98,0.00,CLR,FEW,0.20,WeatherDisplay:10.37,2009-11-21 06:20:00,
2009-11-20 22:35:00,41.9,41.4,28.53,West,273,0.0,3.0,98,0.00,CLR,FEW,0.20,WeatherDisplay:10.37,2009-11-21 06:35:00,
2009-11-20 22:40:00,41.9,41.4,28.53,West,270,0.0,3.0,98,0.00,CLR,FEW,0.20,WeatherDisplay:10.37,2009-11-21 06:40:00,
2009-11-20 22:50:00,41.7,41.2,28.53,West,270,0.0,3.0,98,0.00,CLR,FEW,0.20,WeatherDisplay:10.37,2009-11-21 06:50:00,
2009-11-20 23:00:00,41.5,41.0,28.53,West,270,0.0,3.0,98,0.00,CLR,FEW,0.20,WeatherDisplay:10.37,2009-11-21 07:00:00,
2009-11-20 23:05:00,41.4,40.8,28.53,West,270,0.0,0.0,98,0.00,CLR,FEW,0.20,WeatherDisplay:10.37,2009-11-21 07:05:00,
2009-11-20 23:10:00,41.4,40.8,28.53,West,270,0.0,3.0,98,0.00,CLR,FEW,0.20,WeatherDisplay:10.37,2009-11-21 07:10:00,
2009-11-20 23:20:00,41.4,40.8,28.50,West,270,0.0,3.0,98,0.00,CLR,FEW,0.20,WeatherDisplay:10.37,2009-11-21 07:20:00,
2009-11-20 23:30:00,41.2,40.7,28.50,West,270,0.0,0.0,98,0.00,CLR,FEW,0.20,WeatherDisplay:10.37,2009-11-21 07:30:00,
2009-11-20 23:35:00,41.2,40.7,28.50,West,270,0.0,0.0,98,0.00,CLR,FEW,0.20,WeatherDisplay:10.37,2009-11-21 07:35:00,
2009-11-20 23:40:00,41.0,40.5,28.50,WSW,256,0.0,4.0,98,0.00,CLR,FEW,0.20,WeatherDisplay:10.37,2009-11-21 07:40:00,
2009-11-20 23:50:00,41.0,40.5,28.53,SSE,158,0.0,3.0,98,0.00,CLR,FEW,0.20,WeatherDisplay:10.37,2009-11-21 07:50:00,